Skip to main content

CRUISE INFORMATION RECORD AND DATA
 
NODC Cruise 42-9066 Information
WOD CRUISE REFERENCE # 42009066
DATA:
in WOD format 42009066_XBT.dat
42009066_CTD.dat
in 'csv' format 42009066_XBT.csv
42009066_CTD.csv
METADATA:
COUNTRY INDONESIA (42)
NODC ACCESSION NUMBER (XBT) 43970
NODC ACCESSION NUMBER (CTD) 44407
SHIP NAME (43970) BARUNA JAYA VIII (FRV; call sign YFZQ; built 08.1998; IMO9155171)
INSTITUTE (44407) COMMONWEALTH SCIENTIFIC AND INDUSTRIAL RESEARCH ORGANIZATION (CSIRO)
PROJECT (44407) INTERNATIONAL NUSANTARA STRATIFICATION AND TRANSPORT PROGRAM (INSTANT)
ORIGINATORS CRUISE CODE (CTD) INSTAN05-BALI.S
PRIMARY INVESTIGATORS  
All Parameters WIJFFELS; SUSAN
SUBMITTING INFORMATION (43970)  
SUBMITTING INSTITUTE COMMONWEALTH SCIENTIFIC AND INDUSTRIAL RESEARCH ORGANIZATION (CSIRO)
SUBMITTING INVESTIGATOR THRESHER; DR. ANN GRONELL
SUBMISSION DATE 8/1/2008
SUBMITTING INFORMATION (44407)  
SUBMITTING INSTITUTE COMMONWEALTH SCIENTIFIC AND INDUSTRIAL RESEARCH ORGANIZATION (CSIRO)
SUBMITTING INVESTIGATOR THRESHER; DR. ANN GRONELL
SUBMISSION DATE 8/13/2008
DATE OF FIRST CAST 6/14/2005
DATE OF LAST CAST 7/ 3/2005
TOTAL NUMBER OF CASTS 81
Temperature [t] PROFILES 81
Salinity [s] PROFILES 54
Transmissiv [v] PROFILES 54
Pressure [w] PROFILES 54
UNIQUE CAST # LATITUDE LONGITUDE DATE TIME PROBE TYPE
11462557 -6.710 114.253 6/14/2005 4.969 XBT
11498391 -7.501 115.186 6/14/2005 12.177 CTD
11462558 -7.501 115.186 6/14/2005 12.318 XBT
11462559 -7.501 115.186 6/14/2005 12.502 XBT
11498392 -7.501 115.186 6/14/2005 12.569 CTD
11498393 -7.917 115.500 6/14/2005 16.467 CTD
11462560 -7.917 115.500 6/14/2005 16.652 XBT
11462561 -7.917 115.186 6/14/2005 16.853 XBT
11498394 -8.385 115.916 6/15/2005 8.485 CTD
11462562 -8.385 115.916 6/15/2005 8.551 XBT
11462564 -8.385 115.916 6/15/2005 9.138 XBT
11462563 -8.385 115.916 6/15/2005 9.425 XBT
11498395 -8.416 115.838 6/15/2005 10.676 CTD
11462565 -8.417 115.836 6/15/2005 11.539 XBT
11462566 -8.417 115.835 6/15/2005 11.655 XBT
11498396 -8.451 115.753 6/15/2005 13.353 CTD
11498397 -8.502 115.690 6/15/2005 16.076 CTD
11498398 -8.623 115.748 6/15/2005 18.775 CTD
11498399 -9.000 115.667 6/16/2005 17.298 CTD
11498400 -8.828 116.367 6/16/2005 20.313 CTD
11498401 -8.746 115.704 6/16/2005 21.512 CTD
11498402 -8.335 115.835 6/17/2005 13.824 CTD
11498403 -8.003 115.833 6/17/2005 17.273 CTD
11498404 -8.003 116.833 6/17/2005 20.273 CTD
11498405 -8.335 115.917 6/18/2005 4.945 CTD
11462568 -8.344 115.912 6/18/2005 6.406 XBT
11462567 -8.344 115.912 6/18/2005 6.424 XBT
11498406 -9.152 115.999 6/18/2005 19.606 CTD
11498407 -9.178 116.232 6/18/2005 23.186 CTD
11462569 -9.178 116.332 6/18/2005 23.300 XBT
11462570 -9.178 116.332 6/18/2005 23.720 XBT
11498408 -11.422 122.666 6/20/2005 17.569 CTD
11498409 -11.167 122.083 6/21/2005 14.869 CTD
11462571 -11.169 123.081 6/21/2005 15.873 XBT
11462572 -11.169 123.081 6/21/2005 16.293 XBT
11498410 -11.500 122.918 6/21/2005 19.088 CTD
11498411 -11.444 122.876 6/21/2005 20.493 CTD
11498412 -11.352 122.831 6/22/2005 1.425 CTD
11462573 -11.350 122.831 6/22/2005 1.905 XBT
11498413 -11.281 122.792 6/22/2005 3.423 CTD
11462574 -11.282 122.790 6/22/2005 4.474 XBT
11462575 -11.281 122.790 6/22/2005 4.692 XBT
11498414 -11.201 122.750 6/22/2005 5.706 CTD
11462577 -11.201 122.746 6/22/2005 6.435 XBT
11462576 -11.201 122.746 6/22/2005 6.958 XBT
11462579 -10.787 122.117 6/22/2005 11.636 XBT
11462578 -10.787 122.117 6/22/2005 11.637 XBT
11498415 -10.418 122.451 6/22/2005 15.150 CTD
11462580 -10.418 122.451 6/22/2005 15.618 XBT
11462581 -10.418 122.451 6/22/2005 16.089 XBT
11462582 -10.535 122.135 6/22/2005 18.817 XBT
11462583 -10.535 122.135 6/22/2005 19.306 XBT
11498416 -10.619 122.235 6/22/2005 20.527 CTD
11498417 -10.714 122.417 6/22/2005 22.408 CTD
11498418 -11.900 123.000 6/24/2005 16.780 CTD
11498419 -10.787 122.118 6/26/2005 17.776 CTD
11498420 -10.536 122.132 6/26/2005 20.227 CTD
11498421 -10.417 125.001 6/29/2005 9.552 CTD
11498422 -8.455 125.025 6/29/2005 11.660 CTD
11498423 -8.483 125.050 6/29/2005 14.279 CTD
11498424 -8.450 125.135 6/29/2005 17.665 CTD
11498425 -8.433 125.225 6/29/2005 21.217 CTD
11498426 -8.399 125.316 6/30/2005 0.448 CTD
11498427 -8.368 125.096 6/30/2005 6.073 CTD
11498428 -8.330 125.167 6/30/2005 7.342 CTD
11498429 -8.321 125.238 6/30/2005 8.873 CTD
11498430 -8.084 125.335 6/30/2005 11.947 CTD
11498431 -8.083 125.336 6/30/2005 15.155 CTD
11498432 -8.083 125.336 6/30/2005 15.441 CTD
11498433 -8.083 125.336 6/30/2005 15.681 CTD
11498434 -8.083 125.336 6/30/2005 15.943 CTD
11498435 -8.083 125.336 6/30/2005 16.307 CTD
11498436 -8.083 125.336 6/30/2005 16.545 CTD
11498437 -8.083 125.336 6/30/2005 16.800 CTD
11498438 -8.083 125.336 6/30/2005 17.036 CTD
11498439 -8.250 125.334 6/30/2005 18.699 CTD
11498440 -8.313 125.312 6/30/2005 21.138 CTD
11498441 -8.595 125.110 7/2/2005 4.605 CTD
11498442 -8.068 125.002 7/2/2005 21.600 CTD
11498443 -8.066 125.067 7/2/2005 23.084 CTD
11498444 -8.523 125.067 7/3/2005 4.671 CTD